Аэропорт: Внуково. Москва

ICAO: UUWW

METAR:
2019-07-23 18:30:00
UUWW 231830Z 09002MPS 9999 BKN013 18/15 Q1011 R06/000070 TEMPO -TSRA BKN011CB
METAR:
2019-07-23 16:50:00
TAF UUWW 231650Z 2318/2418 08003MPS 9999 BKN015 TX21/2412Z TN15/2402Z TEMPO 2318/2321 3100 -TSRA SCT007 BKN011CB TEMPO 2321/2405 0300 FG OVC002 TEMPO 2408/2418 06008G13MPS 3100 -TSRA SCT007 BKN011CB